Time;durP1;ratioP1;P1;durP2;ratioP2;P2;SDS_P1;SDS_P2;PMS_P1;PMS_P2;Temp;Humidity;BMP_temperature;BMP_pressure;BME280_temperature;BME280_humidity;BME280_pressure;Samples;Min_cycle;Max_cycle;Signal;HPM_P1;HPM_P2
2022/10/23 00:00:59;;;;;;;9.25;5.25;;;10.20;99.90;;;;;;6131729;19;20352;-86
2022/10/23 00:03:03;;;;;;;11.88;6.00;;;;;;;;;;6130287;19;19914;-85
2022/10/23 00:05:07;;;;;;;13.55;6.43;;;10.40;99.90;;;;;;6128973;19;19911;-85
2022/10/23 00:07:12;;;;;;;14.82;7.30;;;10.60;99.90;;;;;;6128684;19;19918;-84
2022/10/23 00:09:19;;;;;;;12.63;7.15;;;10.40;99.90;;;;;;6129316;19;19925;-85
2022/10/23 00:11:26;;;;;;;10.77;5.38;;;10.50;99.90;;;;;;6129292;19;19931;-85
2022/10/23 00:13:30;;;;;;;11.77;6.10;;;10.50;99.90;;;;;;6127872;19;19922;-85
2022/10/23 00:15:35;;;;;;;11.02;6.00;;;10.40;99.90;;;;;;6126689;19;19945;-84
2022/10/23 00:17:42;;;;;;;9.65;5.47;;;10.40;99.90;;;;;;6128260;19;19926;-86
2022/10/23 00:19:46;;;;;;;11.15;5.57;;;10.40;99.90;;;;;;6130438;19;20241;-86
2022/10/23 00:21:50;;;;;;;12.20;6.00;;;10.50;99.90;;;;;;6129252;19;19911;-86
2022/10/23 00:23:54;;;;;;;13.02;5.85;;;10.30;99.90;;;;;;6131248;19;20340;-85
2022/10/23 00:25:59;;;;;;;12.45;5.63;;;10.50;99.90;;;;;;6132275;19;19922;-84
2022/10/23 00:28:02;;;;;;;12.73;6.32;;;10.40;99.90;;;;;;6130141;19;19945;-84
2022/10/23 00:30:08;;;;;;;9.00;5.60;;;10.20;99.90;;;;;;6128795;19;19915;-84
2022/10/23 00:32:12;;;;;;;9.60;5.45;;;10.40;99.90;;;;;;6127707;19;20355;-84
2022/10/23 00:34:18;;;;;;;13.75;6.28;;;10.30;99.90;;;;;;6128511;19;19913;-84
2022/10/23 00:36:23;;;;;;;12.35;6.65;;;10.50;99.90;;;;;;6130027;19;19926;-84
2022/10/23 00:38:27;;;;;;;11.90;5.50;;;10.30;99.90;;;;;;6131285;19;20018;-84
2022/10/23 00:40:31;;;;;;;9.30;5.63;;;10.30;99.90;;;;;;6127558;19;19923;-85
2022/10/23 00:42:35;;;;;;;14.20;6.38;;;10.40;99.90;;;;;;6128165;19;20249;-85
2022/10/23 00:45:08;;;;;;;10.77;5.90;;;10.50;99.90;;;;;;6127571;19;19918;-85
2022/10/23 00:47:13;;;;;;;13.95;6.25;;;10.30;99.90;;;;;;6130630;19;19927;-84
2022/10/23 00:49:21;;;;;;;11.02;5.93;;;10.20;99.90;;;;;;6130283;19;19926;-86
2022/10/23 00:51:26;;;;;;;10.25;6.03;;;10.30;99.90;;;;;;6134407;19;19919;-84
2022/10/23 00:53:30;;;;;;;12.30;5.95;;;10.30;99.90;;;;;;6130325;19;20663;-85
2022/10/23 00:55:35;;;;;;;12.40;6.53;;;10.10;99.90;;;;;;6126992;19;19915;-84
2022/10/23 00:57:42;;;;;;;8.18;5.97;;;10.20;99.90;;;;;;6126817;19;20281;-85
2022/10/23 00:59:46;;;;;;;12.00;6.22;;;10.20;99.90;;;;;;6127013;19;19941;-84
2022/10/23 01:01:50;;;;;;;10.32;5.78;;;10.40;99.90;;;;;;6127467;19;19919;-85
2022/10/23 01:03:54;;;;;;;10.02;6.35;;;10.20;99.90;;;;;;6127159;19;19923;-85
2022/10/23 01:06:08;;;;;;;11.45;6.00;;;10.20;99.90;;;;;;6126666;19;19911;-85
2022/10/23 01:08:18;;;;;;;10.80;6.03;;;10.20;99.90;;;;;;6131040;19;19918;-85
2022/10/23 01:10:36;;;;;;;9.60;5.50;;;10.20;99.90;;;;;;6133358;19;19918;-86
2022/10/23 01:12:46;;;;;;;10.88;6.35;;;10.30;99.90;;;;;;6132605;19;19915;-85
2022/10/23 01:15:00;;;;;;;9.90;5.80;;;10.10;99.90;;;;;;6133961;19;19926;-85
2022/10/23 01:17:11;;;;;;;13.00;5.90;;;9.90;99.90;;;;;;6130671;19;19935;-84
2022/10/23 01:19:22;;;;;;;10.07;5.40;;;10.30;99.90;;;;;;6132787;19;19914;-85
2022/10/23 01:21:36;;;;;;;13.00;6.38;;;10.20;99.90;;;;;;6134083;19;19926;-85
2022/10/23 01:24:10;;;;;;;9.73;5.82;;;10.20;99.90;;;;;;6131855;19;19946;-86
2022/10/23 01:26:37;;;;;;;13.27;6.53;;;10.10;99.90;;;;;;6130998;19;19914;-86
2022/10/23 01:28:50;;;;;;;11.43;6.47;;;10.20;99.90;;;;;;6133623;19;19931;-86
2022/10/23 01:30:55;;;;;;;8.88;5.93;;;10.10;99.90;;;;;;6132378;19;19919;-84
2022/10/23 01:33:05;;;;;;;9.30;6.05;;;10.20;99.90;;;;;;6130176;19;19923;-85
2022/10/23 01:35:15;;;;;;;13.68;6.00;;;10.30;99.90;;;;;;6134863;19;19942;-85
2022/10/23 01:37:24;;;;;;;8.55;5.53;;;10.10;99.90;;;;;;6129437;19;19910;-83
2022/10/23 01:39:32;;;;;;;9.35;5.35;;;10.20;99.90;;;;;;6131918;19;20410;-86
2022/10/23 01:41:41;;;;;;;8.38;5.00;;;10.20;99.90;;;;;;6134176;19;19941;-86
2022/10/23 01:43:56;;;;;;;8.85;5.50;;;9.60;99.90;;;;;;6131814;19;19941;-86
2022/10/23 01:46:03;;;;;;;11.82;6.28;;;10.10;99.90;;;;;;6131841;19;20692;-86
2022/10/23 01:48:10;;;;;;;9.68;5.90;;;9.80;99.90;;;;;;6133958;19;19914;-86
2022/10/23 01:50:16;;;;;;;10.68;5.97;;;10.90;99.90;;;;;;6132890;19;19919;-86
2022/10/23 01:52:21;;;;;;;10.85;5.80;;;10.20;99.90;;;;;;6132718;19;19942;-86
2022/10/23 01:54:27;;;;;;;9.43;5.93;;;10.30;99.90;;;;;;6132004;19;19933;-84
2022/10/23 01:56:36;;;;;;;10.52;5.75;;;9.90;99.90;;;;;;6130724;19;19930;-86
2022/10/23 01:58:42;;;;;;;8.27;5.05;;;10.10;99.90;;;;;;6131324;19;19928;-86
2022/10/23 02:00:50;;;;;;;9.48;5.55;;;9.80;99.90;;;;;;6131915;19;19925;-85
2022/10/23 02:02:57;;;;;;;9.13;5.05;;;10.10;99.90;;;;;;6133506;19;20344;-86
2022/10/23 02:05:05;;;;;;;10.23;5.47;;;10.10;99.90;;;;;;6131271;19;19955;-86
2022/10/23 02:07:09;;;;;;;9.43;4.93;;;10.00;99.90;;;;;;6130862;19;19918;-84
2022/10/23 02:09:15;;;;;;;8.82;5.32;;;10.10;99.90;;;;;;6131312;19;19938;-85
2022/10/23 02:11:21;;;;;;;9.32;5.07;;;9.90;99.90;;;;;;6134765;19;19941;-85
2022/10/23 02:13:31;;;;;;;7.65;5.05;;;10.10;99.90;;;;;;6134368;19;19919;-84
2022/10/23 02:15:40;;;;;;;8.40;4.85;;;9.90;99.90;;;;;;6132054;19;19945;-87
2022/10/23 02:17:53;;;;;;;6.90;4.95;;;9.80;99.90;;;;;;6132642;19;19919;-87
2022/10/23 02:20:02;;;;;;;5.65;4.38;;;10.00;99.90;;;;;;6132079;19;19919;-86
2022/10/23 02:22:10;;;;;;;10.55;4.85;;;10.10;99.90;;;;;;6133080;19;19945;-86
2022/10/23 02:24:17;;;;;;;12.77;5.72;;;9.90;99.90;;;;;;6136680;19;19945;-86
2022/10/23 02:26:26;;;;;;;8.23;5.00;;;10.00;99.90;;;;;;6132924;19;19914;-85
2022/10/23 02:28:36;;;;;;;9.40;5.53;;;10.00;99.90;;;;;;6134099;19;19946;-84
2022/10/23 02:30:45;;;;;;;8.32;5.13;;;9.90;99.90;;;;;;6136043;19;19915;-84
2022/10/23 02:32:55;;;;;;;8.40;4.95;;;10.30;99.90;;;;;;6138575;19;19914;-86
2022/10/23 02:34:59;;;;;;;8.15;4.93;;;9.90;99.90;;;;;;6139534;19;19918;-84
2022/10/23 02:37:03;;;;;;;10.07;5.22;;;10.00;99.90;;;;;;6138951;19;19923;-85
2022/10/23 02:39:07;;;;;;;5.75;4.53;;;10.00;99.90;;;;;;6132416;19;19922;-85
2022/10/23 02:41:26;;;;;;;6.13;4.13;;;10.00;99.90;;;;;;6134868;19;19919;-86
2022/10/23 02:43:36;;;;;;;7.07;4.72;;;9.90;99.90;;;;;;6131425;19;20367;-86
2022/10/23 02:45:48;;;;;;;7.00;4.70;;;9.90;99.90;;;;;;6134174;19;19915;-86
2022/10/23 02:48:02;;;;;;;8.63;4.80;;;9.80;99.90;;;;;;6130630;19;19914;-86
2022/10/23 02:50:12;;;;;;;9.70;5.50;;;9.80;99.90;;;;;;6130545;19;19911;-87
2022/10/23 02:52:23;;;;;;;8.43;4.80;;;9.90;99.90;;;;;;6130746;19;19917;-86
2022/10/23 02:54:41;;;;;;;9.20;5.60;;;10.00;99.90;;;;;;6130439;19;19933;-86
2022/10/23 02:56:52;;;;;;;8.90;4.85;;;10.10;99.90;;;;;;6129606;19;19935;-86
2022/10/23 02:59:01;;;;;;;8.30;4.85;;;10.00;99.90;;;;;;6130683;19;19922;-85
2022/10/23 03:01:12;;;;;;;9.88;5.25;;;10.00;99.90;;;;;;6131307;19;20343;-85
2022/10/23 03:03:22;;;;;;;11.45;5.05;;;10.00;99.90;;;;;;6133288;19;19914;-86
2022/10/23 03:05:30;;;;;;;6.75;4.40;;;9.90;99.90;;;;;;6130276;19;19915;-86
2022/10/23 03:07:34;;;;;;;10.35;4.68;;;10.10;99.90;;;;;;6130232;19;19911;-86
2022/10/23 03:09:39;;;;;;;9.63;4.85;;;9.90;99.90;;;;;;6130715;19;19911;-87
2022/10/23 03:11:42;;;;;;;12.20;5.10;;;10.00;99.90;;;;;;6134145;19;19919;-87
2022/10/23 03:13:47;;;;;;;7.30;4.65;;;10.00;99.90;;;;;;6132535;19;19925;-86
2022/10/23 03:15:50;;;;;;;7.18;5.22;;;9.90;99.90;;;;;;6129902;19;19915;-86
2022/10/23 03:17:54;;;;;;;6.82;4.72;;;;;;;;;;6128779;19;19914;-85
2022/10/23 03:20:01;;;;;;;8.85;5.63;;;11.70;99.90;;;;;;6129832;19;20304;-85
2022/10/23 03:22:05;;;;;;;10.27;5.45;;;9.90;99.90;;;;;;6133093;19;19922;-86
2022/10/23 03:24:09;;;;;;;12.55;5.53;;;10.10;99.90;;;;;;6131134;19;20370;-86
2022/10/23 03:26:13;;;;;;;9.70;5.47;;;9.70;99.90;;;;;;6131950;19;19953;-86
2022/10/23 03:28:17;;;;;;;10.77;4.90;;;10.10;99.90;;;;;;6130593;19;19933;-86
2022/10/23 03:30:21;;;;;;;9.23;5.03;;;10.00;99.90;;;;;;6129095;19;19922;-86
2022/10/23 03:32:25;;;;;;;10.27;4.85;;;9.60;99.90;;;;;;6131207;19;19915;-85
2022/10/23 03:34:29;;;;;;;8.30;4.72;;;9.70;99.90;;;;;;6131187;19;20251;-86
2022/10/23 03:36:35;;;;;;;9.02;4.80;;;9.90;99.90;;;;;;6129944;19;20494;-86
2022/10/23 03:38:39;;;;;;;8.02;3.92;;;9.50;99.90;;;;;;6130278;19;19949;-86
2022/10/23 03:40:43;;;;;;;9.30;3.70;;;9.90;99.90;;;;;;6131608;19;20320;-86
2022/10/23 03:42:47;;;;;;;8.25;5.75;;;10.00;99.90;;;;;;6129906;19;19910;-84
2022/10/23 03:44:51;;;;;;;8.45;4.88;;;9.70;99.90;;;;;;6130115;19;20276;-85
2022/10/23 03:46:58;;;;;;;8.13;4.28;;;9.80;99.90;;;;;;6133438;19;19918;-85
2022/10/23 03:49:02;;;;;;;7.25;4.07;;;9.90;99.90;;;;;;6130713;19;19922;-85
2022/10/23 03:51:07;;;;;;;9.25;4.40;;;9.90;99.90;;;;;;6131446;19;19925;-87
2022/10/23 03:53:13;;;;;;;7.38;4.30;;;10.00;99.90;;;;;;6129328;19;19943;-85
2022/10/23 03:55:18;;;;;;;4.78;3.58;;;10.00;99.90;;;;;;6129424;19;19910;-86
2022/10/23 03:57:23;;;;;;;8.95;3.63;;;10.00;99.90;;;;;;6136974;19;20350;-86
2022/10/23 03:59:27;;;;;;;7.38;4.00;;;9.70;99.90;;;;;;6134002;19;19922;-86
2022/10/23 04:01:31;;;;;;;8.10;3.95;;;10.00;99.90;;;;;;6129863;19;19956;-84
2022/10/23 04:03:34;;;;;;;14.27;4.63;;;9.90;99.90;;;;;;6128288;19;19933;-86
2022/10/23 04:05:38;;;;;;;9.20;4.25;;;10.00;99.90;;;;;;6130451;19;19923;-85
2022/10/23 04:07:42;;;;;;;10.18;4.43;;;10.00;99.90;;;;;;6128719;19;19934;-86
2022/10/23 04:09:49;;;;;;;6.20;4.32;;;9.70;99.90;;;;;;6131087;19;20250;-86
2022/10/23 04:11:53;;;;;;;7.65;4.22;;;10.00;99.90;;;;;;6132747;19;19942;-87
2022/10/23 04:13:57;;;;;;;7.05;4.63;;;9.90;99.90;;;;;;6129044;19;19953;-86
2022/10/23 04:16:01;;;;;;;9.80;5.20;;;10.00;99.90;;;;;;6129254;19;19932;-86
2022/10/23 04:18:05;;;;;;;8.90;4.90;;;9.80;99.90;;;;;;6129352;19;19915;-84
2022/10/23 04:20:09;;;;;;;11.13;5.40;;;9.90;99.90;;;;;;6131153;19;19922;-87
2022/10/23 04:22:13;;;;;;;8.95;5.22;;;10.00;99.90;;;;;;6129031;19;20080;-87
2022/10/23 04:24:17;;;;;;;8.98;5.57;;;9.90;99.90;;;;;;6128463;19;20275;-87
2022/10/23 04:26:23;;;;;;;7.45;5.25;;;9.90;99.90;;;;;;6128765;19;20359;-88
2022/10/23 04:28:28;;;;;;;10.93;5.60;;;10.00;99.90;;;;;;6129645;19;19917;-87
2022/10/23 04:30:33;;;;;;;8.80;5.45;;;;;;;;;;6129663;19;19919;-87
2022/10/23 04:32:37;;;;;;;7.65;5.22;;;9.80;99.90;;;;;;6131134;19;19982;-87
2022/10/23 04:34:41;;;;;;;12.32;5.68;;;9.90;99.90;;;;;;6128159;19;20336;-86
2022/10/23 04:36:45;;;;;;;8.68;5.30;;;9.80;99.90;;;;;;6128083;19;19921;-86
2022/10/23 04:38:49;;;;;;;8.13;5.05;;;9.90;99.90;;;;;;6128694;19;19911;-87
2022/10/23 04:40:53;;;;;;;10.30;4.90;;;9.80;99.90;;;;;;6129993;19;19922;-86
2022/10/23 04:42:59;;;;;;;8.52;5.32;;;9.50;99.90;;;;;;6131205;19;19922;-86
2022/10/23 04:45:03;;;;;;;11.35;5.40;;;9.90;99.90;;;;;;6133732;19;19935;-87
2022/10/23 04:47:07;;;;;;;8.95;5.30;;;9.80;99.90;;;;;;6134182;19;19938;-86
2022/10/23 04:49:11;;;;;;;9.23;5.25;;;9.70;99.90;;;;;;6133976;19;19917;-87
2022/10/23 04:51:15;;;;;;;9.80;5.97;;;9.80;99.90;;;;;;6135517;19;19918;-86
2022/10/23 04:53:19;;;;;;;8.85;5.47;;;9.20;99.90;;;;;;6134186;19;19914;-86
2022/10/23 04:55:24;;;;;;;10.40;5.65;;;9.70;99.90;;;;;;6134176;19;19937;-87
2022/10/23 04:57:28;;;;;;;11.27;5.32;;;9.70;99.90;;;;;;6133654;19;19919;-87
2022/10/23 04:59:34;;;;;;;8.60;6.00;;;9.30;99.90;;;;;;6134787;19;19915;-85
2022/10/23 05:01:38;;;;;;;9.00;6.07;;;9.50;99.90;;;;;;6135812;19;19974;-86
2022/10/23 05:03:43;;;;;;;11.43;5.35;;;9.40;99.90;;;;;;6135592;19;19918;-86
2022/10/23 05:05:48;;;;;;;9.90;5.47;;;9.70;99.90;;;;;;6134322;19;19918;-85
2022/10/23 05:07:52;;;;;;;10.35;6.25;;;9.70;99.90;;;;;;6133334;19;19911;-86
2022/10/23 05:09:56;;;;;;;10.70;6.45;;;9.60;99.90;;;;;;6133067;19;19919;-86
2022/10/23 05:12:02;;;;;;;9.35;5.95;;;9.40;99.90;;;;;;6134949;19;19934;-85
2022/10/23 05:14:06;;;;;;;12.23;7.03;;;9.50;99.90;;;;;;6132533;19;19914;-86
2022/10/23 05:16:20;;;;;;;10.68;6.20;;;9.60;99.90;;;;;;6133990;19;19945;-86
2022/10/23 05:18:28;;;;;;;10.93;5.85;;;9.90;99.90;;;;;;6130941;19;19923;-86
2022/10/23 05:20:36;;;;;;;9.32;5.85;;;9.30;99.90;;;;;;6132155;19;19914;-86
2022/10/23 05:22:43;;;;;;;11.68;6.40;;;9.80;99.90;;;;;;6134277;19;19915;-85
2022/10/23 05:24:47;;;;;;;11.00;5.82;;;;;;;;;;6132517;19;20267;-86
2022/10/23 05:26:51;;;;;;;10.40;6.03;;;9.80;99.90;;;;;;6135353;19;19922;-85
2022/10/23 05:28:55;;;;;;;10.85;6.25;;;9.70;99.90;;;;;;6132788;19;19914;-86
2022/10/23 05:31:01;;;;;;;14.63;7.10;;;9.50;99.90;;;;;;6140728;19;19942;-86
2022/10/23 05:33:07;;;;;;;12.82;6.28;;;9.90;99.90;;;;;;6137843;19;19911;-85
2022/10/23 05:35:14;;;;;;;12.07;6.25;;;9.80;99.90;;;;;;6135160;19;19918;-86
2022/10/23 05:37:19;;;;;;;11.57;6.13;;;9.70;99.90;;;;;;6132408;19;19918;-87
2022/10/23 05:39:23;;;;;;;13.80;6.35;;;9.50;99.90;;;;;;6134198;19;19919;-86
2022/10/23 05:41:27;;;;;;;12.35;6.65;;;9.70;99.90;;;;;;6132918;19;20032;-86
2022/10/23 05:43:31;;;;;;;12.15;6.47;;;9.70;99.90;;;;;;6134554;19;19934;-87
2022/10/23 05:45:35;;;;;;;13.18;6.40;;;9.90;99.90;;;;;;6133350;19;19922;-86
2022/10/23 05:47:39;;;;;;;10.68;5.80;;;9.70;99.90;;;;;;6133889;19;19946;-85
2022/10/23 05:49:45;;;;;;;13.18;5.95;;;9.70;99.90;;;;;;6132755;19;19923;-85
2022/10/23 05:51:49;;;;;;;9.43;5.90;;;9.40;99.90;;;;;;6135571;19;19933;-87
2022/10/23 05:53:54;;;;;;;11.93;6.40;;;9.60;99.90;;;;;;6135371;19;20313;-85
2022/10/23 05:55:58;;;;;;;12.20;6.13;;;9.90;99.90;;;;;;6135452;19;19922;-86
2022/10/23 05:58:03;;;;;;;10.95;5.93;;;9.80;99.90;;;;;;6143870;19;19918;-86
2022/10/23 06:00:09;;;;;;;10.07;6.10;;;9.60;99.90;;;;;;6141290;19;19938;-85
2022/10/23 06:02:12;;;;;;;15.93;6.80;;;9.50;99.90;;;;;;6140245;19;19950;-86
2022/10/23 06:04:16;;;;;;;11.70;5.97;;;9.70;99.90;;;;;;6141706;19;20375;-86
2022/10/23 06:06:23;;;;;;;9.90;5.63;;;9.60;99.90;;;;;;6141646;19;19915;-86
2022/10/23 06:08:27;;;;;;;9.63;5.60;;;9.50;99.90;;;;;;6133154;19;19915;-86
2022/10/23 06:10:34;;;;;;;10.95;6.07;;;9.50;99.90;;;;;;6132100;19;19914;-86
2022/10/23 06:12:38;;;;;;;10.68;5.38;;;9.50;99.90;;;;;;6130885;19;20361;-87
2022/10/23 06:14:42;;;;;;;11.10;6.05;;;9.50;99.90;;;;;;6131239;19;19922;-86
2022/10/23 06:16:46;;;;;;;12.40;5.57;;;9.40;99.90;;;;;;6132649;19;19917;-86
2022/10/23 06:18:50;;;;;;;11.50;5.93;;;9.50;99.90;;;;;;6130725;19;20343;-86
2022/10/23 06:20:54;;;;;;;12.75;6.00;;;9.10;99.90;;;;;;6132365;19;19942;-85
2022/10/23 06:23:00;;;;;;;11.77;6.22;;;9.30;99.90;;;;;;6133396;19;19915;-85
2022/10/23 06:25:04;;;;;;;9.48;5.13;;;9.40;99.90;;;;;;6135226;19;19938;-86
2022/10/23 06:27:08;;;;;;;9.00;5.45;;;9.40;99.90;;;;;;6131702;19;19914;-86
2022/10/23 06:29:12;;;;;;;8.95;5.25;;;;;;;;;;6132894;19;19945;-87
2022/10/23 06:31:19;;;;;;;10.68;5.15;;;9.40;99.90;;;;;;6132731;19;20507;-88
2022/10/23 06:33:23;;;;;;;10.68;6.07;;;9.50;99.90;;;;;;6133255;19;19911;-86
2022/10/23 06:35:26;;;;;;;9.20;5.32;;;9.60;99.90;;;;;;6135031;19;19946;-86
2022/10/23 06:37:30;;;;;;;9.38;5.35;;;9.50;99.90;;;;;;6131556;19;19910;-86
2022/10/23 06:39:39;;;;;;;8.40;5.75;;;9.60;99.90;;;;;;6135260;19;20364;-87
2022/10/23 06:41:44;;;;;;;11.20;5.90;;;9.40;99.90;;;;;;6131092;19;19915;-86
2022/10/23 06:43:50;;;;;;;9.07;5.47;;;9.80;99.90;;;;;;6129835;19;19918;-86
2022/10/23 06:45:54;;;;;;;9.88;5.43;;;9.70;99.90;;;;;;6131286;19;19918;-87
2022/10/23 06:47:57;;;;;;;8.63;5.13;;;9.70;99.90;;;;;;6131097;19;19910;-87
2022/10/23 06:50:01;;;;;;;12.57;6.47;;;9.70;99.90;;;;;;6131072;19;19919;-87
2022/10/23 06:52:05;;;;;;;9.52;5.63;;;9.70;99.90;;;;;;6130185;19;19918;-87
2022/10/23 06:54:09;;;;;;;9.65;6.00;;;9.50;99.90;;;;;;6128426;19;19938;-86
2022/10/23 06:56:16;;;;;;;9.60;5.15;;;9.30;99.90;;;;;;6133974;19;19934;-86
2022/10/23 06:58:19;;;;;;;8.57;5.07;;;9.50;99.90;;;;;;6127749;19;19915;-85
2022/10/23 07:00:23;;;;;;;10.10;5.75;;;9.80;99.90;;;;;;6131884;19;19918;-86
2022/10/23 07:02:27;;;;;;;8.43;5.03;;;9.80;99.90;;;;;;6130631;19;20245;-86
2022/10/23 07:04:31;;;;;;;9.45;5.53;;;;;;;;;;6133623;19;19915;-85
2022/10/23 07:06:35;;;;;;;11.23;5.30;;;9.80;99.90;;;;;;6142566;19;20034;-85
2022/10/23 07:08:39;;;;;;;9.00;5.22;;;9.70;99.90;;;;;;6131687;19;19922;-86
2022/10/23 07:10:44;;;;;;;9.38;5.43;;;9.80;99.90;;;;;;6133036;19;19937;-86
2022/10/23 07:12:50;;;;;;;11.88;5.47;;;9.60;99.90;;;;;;6132987;19;19923;-87
2022/10/23 07:14:54;;;;;;;11.98;5.30;;;9.60;99.90;;;;;;6132610;19;19910;-87
2022/10/23 07:16:58;;;;;;;11.63;5.90;;;9.60;99.90;;;;;;6132476;19;20324;-86
2022/10/23 07:19:02;;;;;;;10.30;5.75;;;9.80;99.90;;;;;;6129352;19;20351;-86
2022/10/23 07:21:06;;;;;;;14.48;5.95;;;9.80;99.90;;;;;;6130709;19;19915;-87
2022/10/23 07:23:14;;;;;;;11.98;6.10;;;9.90;99.90;;;;;;6132833;19;19924;-87
2022/10/23 07:25:18;;;;;;;9.40;5.45;;;9.80;99.90;;;;;;6130051;19;20598;-87
2022/10/23 07:27:22;;;;;;;8.15;4.88;;;9.90;99.90;;;;;;6131255;19;20344;-87
2022/10/23 07:29:29;;;;;;;10.18;5.05;;;10.00;99.90;;;;;;6134204;19;19918;-87
2022/10/23 07:31:33;;;;;;;8.07;5.57;;;10.00;99.90;;;;;;6129964;19;19915;-87
2022/10/23 07:33:37;;;;;;;9.32;5.32;;;;;;;;;;6132964;19;19919;-86
2022/10/23 07:35:41;;;;;;;9.23;5.40;;;10.10;99.90;;;;;;6131629;19;20325;-85
2022/10/23 07:37:45;;;;;;;13.68;5.05;;;;;;;;;;6129979;19;20316;-85
2022/10/23 07:39:49;;;;;;;9.80;5.18;;;10.10;99.90;;;;;;6132771;19;19933;-86
2022/10/23 07:41:53;;;;;;;12.60;5.78;;;10.20;99.90;;;;;;6130106;19;20233;-86
2022/10/23 07:43:57;;;;;;;13.57;5.53;;;10.20;99.90;;;;;;6129657;19;20392;-85
2022/10/23 07:46:03;;;;;;;9.82;5.55;;;10.20;99.90;;;;;;6129968;19;19941;-86
2022/10/23 07:48:07;;;;;;;8.13;4.97;;;10.20;99.90;;;;;;6130210;19;19929;-87
2022/10/23 07:50:11;;;;;;;8.95;5.03;;;10.40;99.90;;;;;;6129872;19;19911;-84
2022/10/23 07:52:15;;;;;;;12.18;5.57;;;10.40;99.90;;;;;;6134296;19;19945;-86
2022/10/23 07:54:19;;;;;;;14.15;5.70;;;;;;;;;;6130786;19;19910;-88
2022/10/23 07:56:28;;;;;;;9.38;5.07;;;10.10;99.90;;;;;;6134815;19;19942;-87
2022/10/23 07:58:32;;;;;;;11.23;5.00;;;10.40;99.90;;;;;;6130738;19;19946;-86
2022/10/23 08:00:36;;;;;;;10.07;5.40;;;10.10;99.90;;;;;;6131189;19;19934;-87
2022/10/23 08:02:43;;;;;;;9.82;5.55;;;10.50;99.90;;;;;;6130375;19;19914;-87
2022/10/23 08:04:50;;;;;;;10.38;5.88;;;10.60;99.90;;;;;;6130247;19;19923;-86
2022/10/23 08:06:54;;;;;;;10.60;5.13;;;;;;;;;;6129243;19;19923;-86
2022/10/23 08:08:58;;;;;;;8.98;5.60;;;10.70;99.90;;;;;;6130299;19;20275;-86
2022/10/23 08:11:03;;;;;;;7.45;4.90;;;10.50;99.90;;;;;;6130440;19;19942;-86
2022/10/23 08:13:07;;;;;;;7.85;5.28;;;10.60;99.90;;;;;;6127993;19;19911;-84
2022/10/23 08:15:11;;;;;;;10.48;4.95;;;10.70;99.90;;;;;;6130677;19;19919;-86
2022/10/23 08:17:15;;;;;;;9.55;5.25;;;10.60;99.90;;;;;;6132021;19;19915;-87
2022/10/23 08:19:22;;;;;;;10.27;5.10;;;10.80;99.90;;;;;;6135307;19;19914;-87
2022/10/23 08:21:26;;;;;;;12.90;5.45;;;;;;;;;;6134106;19;19945;-86
2022/10/23 08:23:30;;;;;;;7.30;4.95;;;10.80;99.90;;;;;;6134698;19;19923;-85
2022/10/23 08:25:34;;;;;;;9.48;5.63;;;10.80;99.90;;;;;;6134466;19;20241;-85
2022/10/23 08:27:38;;;;;;;11.25;4.90;;;11.20;99.90;;;;;;6133875;19;19942;-86
2022/10/23 08:29:42;;;;;;;7.38;4.85;;;11.00;99.90;;;;;;6136655;19;19915;-86
2022/10/23 08:31:46;;;;;;;10.60;5.82;;;10.70;99.90;;;;;;6134135;19;19941;-88
2022/10/23 08:33:50;;;;;;;7.18;5.18;;;11.00;99.90;;;;;;6132464;19;19915;-86
2022/10/23 08:35:56;;;;;;;9.02;5.38;;;11.00;99.90;;;;;;6132400;19;20256;-87
2022/10/23 08:38:00;;;;;;;9.50;5.32;;;11.20;99.90;;;;;;6132956;19;19934;-85
2022/10/23 08:40:05;;;;;;;8.93;5.00;;;11.10;99.90;;;;;;6135287;19;19919;-87
2022/10/23 08:42:19;;;;;;;8.63;5.60;;;11.30;99.90;;;;;;6132146;19;20357;-86
2022/10/23 08:44:27;;;;;;;8.95;5.20;;;11.50;99.90;;;;;;6130559;19;19937;-86
2022/10/23 08:46:36;;;;;;;9.13;5.22;;;11.90;99.90;;;;;;6131463;19;20265;-87
2022/10/23 08:48:43;;;;;;;9.98;5.00;;;11.40;99.90;;;;;;6132899;19;19938;-86
2022/10/23 08:50:52;;;;;;;8.48;5.30;;;11.70;99.90;;;;;;6132819;19;19990;-86
2022/10/23 08:53:04;;;;;;;9.65;5.35;;;11.60;99.90;;;;;;6134613;19;19915;-86
2022/10/23 08:55:19;;;;;;;12.13;5.97;;;11.50;99.90;;;;;;6131127;19;19942;-85
2022/10/23 08:57:31;;;;;;;9.43;5.35;;;11.50;99.90;;;;;;6135217;19;19945;-86
2022/10/23 08:59:40;;;;;;;9.55;5.13;;;11.60;99.90;;;;;;6130149;19;19911;-85
2022/10/23 09:01:48;;;;;;;7.90;4.95;;;11.80;99.90;;;;;;6134509;19;19911;-86
2022/10/23 09:03:52;;;;;;;10.65;4.90;;;;;;;;;;6132475;19;19982;-87
2022/10/23 09:06:07;;;;;;;9.55;5.28;;;11.60;99.90;;;;;;6133794;19;19922;-86
2022/10/23 09:08:25;;;;;;;11.25;5.95;;;11.80;99.90;;;;;;6132892;19;19922;-86
2022/10/23 09:10:53;;;;;;;7.53;5.10;;;11.80;99.90;;;;;;6130966;19;20332;-85
2022/10/23 09:13:01;;;;;;;8.48;4.97;;;12.10;99.90;;;;;;6136189;19;19915;-86
2022/10/23 09:15:19;;;;;;;9.25;5.07;;;12.00;99.90;;;;;;6134850;19;19934;-87
2022/10/23 09:17:27;;;;;;;11.25;4.80;;;11.90;99.90;;;;;;6135709;19;19914;-86
2022/10/23 09:19:32;;;;;;;10.13;4.43;;;11.80;99.90;;;;;;6131381;19;19911;-86
2022/10/23 09:21:37;;;;;;;10.45;5.05;;;12.70;99.90;;;;;;6132913;19;19937;-86
2022/10/23 09:23:44;;;;;;;9.93;4.95;;;12.80;99.90;;;;;;6138073;19;19923;-85
2022/10/23 09:25:54;;;;;;;11.43;5.25;;;12.60;99.90;;;;;;6141582;19;20323;-85
2022/10/23 09:27:59;;;;;;;9.60;5.30;;;12.50;99.90;;;;;;6131321;19;19915;-85
2022/10/23 09:30:03;;;;;;;6.60;5.00;;;12.20;99.90;;;;;;6131554;19;20333;-85
2022/10/23 09:32:08;;;;;;;9.15;5.25;;;12.60;99.90;;;;;;6131224;19;19914;-85
2022/10/23 09:34:21;;;;;;;9.52;4.70;;;13.00;99.90;;;;;;6128660;19;19926;-85
2022/10/23 09:36:28;;;;;;;8.23;5.43;;;12.00;99.90;;;;;;6130410;19;19938;-84
2022/10/23 09:38:35;;;;;;;11.45;5.40;;;12.40;99.90;;;;;;6130760;19;19966;-85
2022/10/23 09:40:44;;;;;;;10.23;4.88;;;12.60;99.90;;;;;;6134285;19;19906;-85
2022/10/23 09:42:57;;;;;;;8.25;4.95;;;13.00;99.90;;;;;;6130350;19;19922;-85
2022/10/23 09:45:01;;;;;;;9.70;5.28;;;12.70;99.90;;;;;;6129449;19;19938;-84
2022/10/23 09:47:12;;;;;;;11.15;5.10;;;12.90;99.90;;;;;;6129763;19;19919;-86
2022/10/23 09:49:22;;;;;;;9.43;5.05;;;13.10;99.90;;;;;;6129834;19;19907;-85
2022/10/23 09:51:26;;;;;;;11.05;4.82;;;12.90;99.90;;;;;;6130319;19;19914;-86
2022/10/23 09:53:36;;;;;;;8.30;4.55;;;13.60;99.90;;;;;;6129974;19;19918;-86
2022/10/23 09:55:43;;;;;;;8.73;4.38;;;13.60;99.90;;;;;;6130157;19;19915;-82
2022/10/23 09:57:48;;;;;;;7.57;4.50;;;13.40;99.90;;;;;;6129540;19;19918;-85
2022/10/23 09:59:53;;;;;;;10.68;5.25;;;13.20;99.90;;;;;;6127283;19;19938;-85
2022/10/23 10:01:59;;;;;;;5.57;4.22;;;13.90;99.90;;;;;;6129383;19;19914;-85
2022/10/23 10:04:03;;;;;;;7.75;4.60;;;;;;;;;;6131942;19;19918;-85
2022/10/23 10:06:07;;;;;;;7.85;4.32;;;14.30;99.90;;;;;;6131621;19;19949;-85
2022/10/23 10:08:22;;;;;;;7.90;4.10;;;13.80;99.90;;;;;;6115850;19;20348;-85
2022/10/23 10:10:30;;;;;;;11.73;4.38;;;13.40;99.90;;;;;;6129091;19;19949;-84
2022/10/23 10:12:48;;;;;;;7.15;4.57;;;13.40;99.90;;;;;;6133127;19;19914;-83
2022/10/23 10:15:06;;;;;;;11.38;4.65;;;13.50;99.90;;;;;;6131737;19;19928;-86
2022/10/23 10:17:19;;;;;;;8.70;4.65;;;13.80;99.90;;;;;;6130785;19;20323;-93
2022/10/23 10:19:47;;;;;;;7.93;4.63;;;14.10;99.90;;;;;;6149813;19;19915;-90
2022/10/23 10:21:54;;;;;;;10.88;4.57;;;13.90;99.90;;;;;;6134707;19;19914;-93
2022/10/23 10:24:04;;;;;;;8.90;5.00;;;14.60;99.90;;;;;;6137544;19;20362;-91
2022/10/23 10:26:21;;;;;;;8.30;4.85;;;13.80;99.90;;;;;;6134169;19;19950;-84
2022/10/23 10:28:36;;;;;;;10.88;4.00;;;13.90;99.90;;;;;;6127098;19;19922;-85
2022/10/23 10:30:50;;;;;;;8.88;4.43;;;13.60;99.90;;;;;;6131059;19;20329;-91
2022/10/23 10:33:03;;;;;;;8.88;4.70;;;13.80;99.90;;;;;;6130668;19;19919;-91
2022/10/23 10:35:24;;;;;;;6.72;4.47;;;14.00;99.90;;;;;;6137348;19;19911;-89
2022/10/23 10:37:36;;;;;;;11.95;4.63;;;14.00;99.90;;;;;;6139692;19;19946;-88
2022/10/23 10:39:49;;;;;;;7.88;4.38;;;14.60;99.90;;;;;;6132408;19;19984;-96
2022/10/23 10:42:09;;;;;;;9.35;4.22;;;13.90;99.90;;;;;;6135436;19;19914;-89
2022/10/23 10:44:31;;;;;;;8.18;4.40;;;14.40;99.90;;;;;;6149454;19;19934;-92
2022/10/23 10:46:42;;;;;;;7.53;4.20;;;14.10;99.90;;;;;;6131786;19;19919;-80
2022/10/23 10:48:51;;;;;;;7.40;4.30;;;14.20;99.90;;;;;;6130080;19;20363;-83
2022/10/23 10:51:00;;;;;;;8.07;4.30;;;15.10;99.90;;;;;;6129701;19;20276;-81
2022/10/23 10:53:10;;;;;;;8.98;4.35;;;15.10;99.90;;;;;;6111306;19;19926;-80
2022/10/23 10:55:21;;;;;;;6.70;4.22;;;14.70;99.90;;;;;;6127912;19;19942;-79
2022/10/23 10:57:32;;;;;;;9.30;4.32;;;14.60;99.90;;;;;;6127441;19;20538;-80
2022/10/23 10:59:43;;;;;;;9.18;5.88;;;14.10;99.90;;;;;;6121370;19;20356;-79
2022/10/23 11:01:54;;;;;;;6.82;4.13;;;14.70;99.90;;;;;;6127620;19;19926;-79
2022/10/23 11:04:06;;;;;;;7.38;4.13;;;14.60;99.90;;;;;;6128470;19;20340;-78